sensor_id;sensor_type;location;lat;lon;timestamp;temperature;humidity
31619;DHT22;18230;51.502;7.108;2023-08-06T00:01:59;17.10;99.90
31619;DHT22;18230;51.502;7.108;2023-08-06T00:07:00;17.00;99.90
31619;DHT22;18230;51.502;7.108;2023-08-06T00:12:01;16.90;99.90
31619;DHT22;18230;51.502;7.108;2023-08-06T00:17:01;16.90;99.90
31619;DHT22;18230;51.502;7.108;2023-08-06T00:22:02;17.00;99.90
31619;DHT22;18230;51.502;7.108;2023-08-06T00:27:03;16.90;99.90
31619;DHT22;18230;51.502;7.108;2023-08-06T00:32:04;16.80;99.90
31619;DHT22;18230;51.502;7.108;2023-08-06T00:37:05;16.80;99.90
31619;DHT22;18230;51.502;7.108;2023-08-06T00:42:05;16.70;99.90
31619;DHT22;18230;51.502;7.108;2023-08-06T00:47:07;16.70;99.90
31619;DHT22;18230;51.502;7.108;2023-08-06T00:52:08;16.70;99.90
31619;DHT22;18230;51.502;7.108;2023-08-06T00:57:09;16.70;99.90
31619;DHT22;18230;51.502;7.108;2023-08-06T01:02:13;16.60;99.90
31619;DHT22;18230;51.502;7.108;2023-08-06T01:13:42;16.60;99.90
31619;DHT22;18230;51.502;7.108;2023-08-06T01:18:44;16.50;99.90
31619;DHT22;18230;51.502;7.108;2023-08-06T01:23:47;16.60;99.90
31619;DHT22;18230;51.502;7.108;2023-08-06T01:33:59;16.60;99.90
31619;DHT22;18230;51.502;7.108;2023-08-06T01:39:01;16.70;99.90
31619;DHT22;18230;51.502;7.108;2023-08-06T01:44:02;16.70;99.90
31619;DHT22;18230;51.502;7.108;2023-08-06T01:49:03;16.70;99.90
31619;DHT22;18230;51.502;7.108;2023-08-06T01:54:03;16.70;99.90
31619;DHT22;18230;51.502;7.108;2023-08-06T01:59:04;16.70;99.90
31619;DHT22;18230;51.502;7.108;2023-08-06T02:04:05;16.70;99.90
31619;DHT22;18230;51.502;7.108;2023-08-06T02:09:05;16.70;99.90
31619;DHT22;18230;51.502;7.108;2023-08-06T02:14:06;16.70;99.90
31619;DHT22;18230;51.502;7.108;2023-08-06T02:19:07;16.80;99.90
31619;DHT22;18230;51.502;7.108;2023-08-06T02:24:07;16.80;99.90
31619;DHT22;18230;51.502;7.108;2023-08-06T02:29:08;16.80;99.90
31619;DHT22;18230;51.502;7.108;2023-08-06T02:34:09;16.80;99.90
31619;DHT22;18230;51.502;7.108;2023-08-06T02:39:09;16.80;99.90
31619;DHT22;18230;51.502;7.108;2023-08-06T02:44:10;16.80;99.90
31619;DHT22;18230;51.502;7.108;2023-08-06T02:49:11;16.80;99.90
31619;DHT22;18230;51.502;7.108;2023-08-06T02:54:11;16.70;99.90
31619;DHT22;18230;51.502;7.108;2023-08-06T02:59:13;16.70;99.90
31619;DHT22;18230;51.502;7.108;2023-08-06T03:04:13;16.70;99.90
31619;DHT22;18230;51.502;7.108;2023-08-06T03:09:14;16.70;99.90
31619;DHT22;18230;51.502;7.108;2023-08-06T03:14:15;16.70;99.90
31619;DHT22;18230;51.502;7.108;2023-08-06T03:19:15;16.70;99.90
31619;DHT22;18230;51.502;7.108;2023-08-06T03:24:16;16.60;99.90
31619;DHT22;18230;51.502;7.108;2023-08-06T03:29:17;16.60;99.90
31619;DHT22;18230;51.502;7.108;2023-08-06T03:34:17;16.60;99.90
31619;DHT22;18230;51.502;7.108;2023-08-06T03:39:18;16.60;99.90
31619;DHT22;18230;51.502;7.108;2023-08-06T03:44:19;16.70;99.90
31619;DHT22;18230;51.502;7.108;2023-08-06T03:49:19;16.70;99.90
31619;DHT22;18230;51.502;7.108;2023-08-06T03:54:20;16.70;99.90
31619;DHT22;18230;51.502;7.108;2023-08-06T03:59:20;16.70;99.90
31619;DHT22;18230;51.502;7.108;2023-08-06T04:04:21;16.70;99.90
31619;DHT22;18230;51.502;7.108;2023-08-06T04:09:22;16.70;99.90
31619;DHT22;18230;51.502;7.108;2023-08-06T04:14:29;16.70;99.90
31619;DHT22;18230;51.502;7.108;2023-08-06T04:19:40;16.70;99.90
31619;DHT22;18230;51.502;7.108;2023-08-06T04:24:40;16.60;99.90
31619;DHT22;18230;51.502;7.108;2023-08-06T04:29:43;16.50;99.90
31619;DHT22;18230;51.502;7.108;2023-08-06T04:34:44;16.50;99.90
31619;DHT22;18230;51.502;7.108;2023-08-06T04:39:48;16.60;99.90
31619;DHT22;18230;51.502;7.108;2023-08-06T04:44:55;16.70;99.90
31619;DHT22;18230;51.502;7.108;2023-08-06T04:50:04;16.70;99.90
31619;DHT22;18230;51.502;7.108;2023-08-06T04:55:05;16.70;99.90
31619;DHT22;18230;51.502;7.108;2023-08-06T05:00:07;16.70;99.90
31619;DHT22;18230;51.502;7.108;2023-08-06T05:05:11;16.70;99.90
31619;DHT22;18230;51.502;7.108;2023-08-06T05:10:15;16.70;99.90
31619;DHT22;18230;51.502;7.108;2023-08-06T05:15:18;16.80;99.90
31619;DHT22;18230;51.502;7.108;2023-08-06T05:20:22;16.80;99.90
31619;DHT22;18230;51.502;7.108;2023-08-06T05:25:23;16.90;99.90
31619;DHT22;18230;51.502;7.108;2023-08-06T05:30:23;16.90;99.90
31619;DHT22;18230;51.502;7.108;2023-08-06T05:35:27;17.10;99.90
31619;DHT22;18230;51.502;7.108;2023-08-06T05:40:37;17.20;99.90
31619;DHT22;18230;51.502;7.108;2023-08-06T05:45:38;17.20;99.90
31619;DHT22;18230;51.502;7.108;2023-08-06T05:50:39;17.30;99.90
31619;DHT22;18230;51.502;7.108;2023-08-06T05:55:44;17.50;99.90
31619;DHT22;18230;51.502;7.108;2023-08-06T06:00:45;17.50;99.90
31619;DHT22;18230;51.502;7.108;2023-08-06T06:05:45;17.50;99.90
31619;DHT22;18230;51.502;7.108;2023-08-06T06:10:46;17.70;99.90
31619;DHT22;18230;51.502;7.108;2023-08-06T06:15:47;18.10;99.90
31619;DHT22;18230;51.502;7.108;2023-08-06T06:26:20;18.50;99.90
31619;DHT22;18230;51.502;7.108;2023-08-06T06:31:21;18.50;99.90
31619;DHT22;18230;51.502;7.108;2023-08-06T06:36:31;18.60;99.90
31619;DHT22;18230;51.502;7.108;2023-08-06T06:41:35;18.70;99.90
31619;DHT22;18230;51.502;7.108;2023-08-06T06:46:44;18.80;99.90
31619;DHT22;18230;51.502;7.108;2023-08-06T06:51:52;18.80;99.90
31619;DHT22;18230;51.502;7.108;2023-08-06T06:56:53;18.90;99.90
31619;DHT22;18230;51.502;7.108;2023-08-06T07:01:56;18.90;99.90
31619;DHT22;18230;51.502;7.108;2023-08-06T07:07:04;19.00;99.90
31619;DHT22;18230;51.502;7.108;2023-08-06T07:12:17;19.10;99.90
31619;DHT22;18230;51.502;7.108;2023-08-06T07:17:17;19.30;99.90
31619;DHT22;18230;51.502;7.108;2023-08-06T07:22:20;19.20;99.90
31619;DHT22;18230;51.502;7.108;2023-08-06T07:27:28;19.20;99.90
31619;DHT22;18230;51.502;7.108;2023-08-06T07:32:29;19.00;99.90
31619;DHT22;18230;51.502;7.108;2023-08-06T07:37:36;18.90;99.90
31619;DHT22;18230;51.502;7.108;2023-08-06T07:42:42;19.40;99.90
31619;DHT22;18230;51.502;7.108;2023-08-06T07:47:48;19.80;99.90
31619;DHT22;18230;51.502;7.108;2023-08-06T07:52:52;19.80;99.90
31619;DHT22;18230;51.502;7.108;2023-08-06T07:57:53;20.10;99.90
31619;DHT22;18230;51.502;7.108;2023-08-06T08:02:54;20.10;99.90
31619;DHT22;18230;51.502;7.108;2023-08-06T08:07:55;20.20;99.90
31619;DHT22;18230;51.502;7.108;2023-08-06T08:12:56;20.50;99.90
31619;DHT22;18230;51.502;7.108;2023-08-06T08:17:56;20.70;99.90
31619;DHT22;18230;51.502;7.108;2023-08-06T08:22:58;21.00;99.90
31619;DHT22;18230;51.502;7.108;2023-08-06T08:27:59;21.10;99.90
31619;DHT22;18230;51.502;7.108;2023-08-06T08:33:00;21.10;99.90
31619;DHT22;18230;51.502;7.108;2023-08-06T08:38:01;20.90;99.90
31619;DHT22;18230;51.502;7.108;2023-08-06T08:43:02;20.50;99.90
31619;DHT22;18230;51.502;7.108;2023-08-06T08:48:03;20.20;99.90
31619;DHT22;18230;51.502;7.108;2023-08-06T08:53:03;20.10;99.90
31619;DHT22;18230;51.502;7.108;2023-08-06T08:58:05;19.90;99.90
31619;DHT22;18230;51.502;7.108;2023-08-06T09:03:06;19.70;99.90
31619;DHT22;18230;51.502;7.108;2023-08-06T09:08:11;19.50;99.90
31619;DHT22;18230;51.502;7.108;2023-08-06T09:13:13;19.40;99.90
31619;DHT22;18230;51.502;7.108;2023-08-06T09:18:14;19.40;99.90
31619;DHT22;18230;51.502;7.108;2023-08-06T09:23:15;19.40;99.90
31619;DHT22;18230;51.502;7.108;2023-08-06T09:28:16;19.20;99.90
31619;DHT22;18230;51.502;7.108;2023-08-06T09:33:18;19.30;99.90
31619;DHT22;18230;51.502;7.108;2023-08-06T09:38:21;19.30;99.90
31619;DHT22;18230;51.502;7.108;2023-08-06T09:43:22;19.40;99.90
31619;DHT22;18230;51.502;7.108;2023-08-06T09:48:29;19.50;99.90
31619;DHT22;18230;51.502;7.108;2023-08-06T09:53:30;19.60;99.90
31619;DHT22;18230;51.502;7.108;2023-08-06T09:58:32;19.80;99.90
31619;DHT22;18230;51.502;7.108;2023-08-06T10:03:34;20.00;99.90
31619;DHT22;18230;51.502;7.108;2023-08-06T10:08:35;20.20;99.90
31619;DHT22;18230;51.502;7.108;2023-08-06T10:13:37;20.30;99.90
31619;DHT22;18230;51.502;7.108;2023-08-06T10:18:39;20.50;99.90
31619;DHT22;18230;51.502;7.108;2023-08-06T10:23:40;20.70;99.90
31619;DHT22;18230;51.502;7.108;2023-08-06T10:28:41;20.80;99.90
31619;DHT22;18230;51.502;7.108;2023-08-06T10:33:43;20.80;99.90
31619;DHT22;18230;51.502;7.108;2023-08-06T10:38:46;20.50;99.90
31619;DHT22;18230;51.502;7.108;2023-08-06T10:43:47;20.50;99.90
31619;DHT22;18230;51.502;7.108;2023-08-06T10:48:48;20.30;99.90
31619;DHT22;18230;51.502;7.108;2023-08-06T10:53:50;20.20;99.90
31619;DHT22;18230;51.502;7.108;2023-08-06T10:58:53;20.00;99.90
31619;DHT22;18230;51.502;7.108;2023-08-06T11:03:54;19.80;99.90
31619;DHT22;18230;51.502;7.108;2023-08-06T11:08:55;19.60;99.90
31619;DHT22;18230;51.502;7.108;2023-08-06T11:13:56;19.70;99.90
31619;DHT22;18230;51.502;7.108;2023-08-06T11:18:57;19.70;99.90
31619;DHT22;18230;51.502;7.108;2023-08-06T11:24:00;19.60;99.90
31619;DHT22;18230;51.502;7.108;2023-08-06T11:29:00;19.70;99.90
31619;DHT22;18230;51.502;7.108;2023-08-06T11:34:01;19.80;99.90
31619;DHT22;18230;51.502;7.108;2023-08-06T11:39:03;19.80;99.90
31619;DHT22;18230;51.502;7.108;2023-08-06T11:44:05;19.50;99.90
31619;DHT22;18230;51.502;7.108;2023-08-06T11:49:06;19.30;99.90
31619;DHT22;18230;51.502;7.108;2023-08-06T11:54:07;19.10;99.90
31619;DHT22;18230;51.502;7.108;2023-08-06T11:59:08;18.90;99.90
31619;DHT22;18230;51.502;7.108;2023-08-06T12:04:12;18.70;99.90
31619;DHT22;18230;51.502;7.108;2023-08-06T12:09:13;18.40;99.90
31619;DHT22;18230;51.502;7.108;2023-08-06T12:14:13;17.90;99.90
31619;DHT22;18230;51.502;7.108;2023-08-06T12:19:14;17.60;99.90
31619;DHT22;18230;51.502;7.108;2023-08-06T12:24:14;17.40;99.90
31619;DHT22;18230;51.502;7.108;2023-08-06T12:29:15;17.30;99.90
31619;DHT22;18230;51.502;7.108;2023-08-06T12:34:19;17.20;99.90
31619;DHT22;18230;51.502;7.108;2023-08-06T12:39:24;16.80;99.90
31619;DHT22;18230;51.502;7.108;2023-08-06T12:44:28;16.50;99.90
31619;DHT22;18230;51.502;7.108;2023-08-06T12:49:28;16.30;99.90
31619;DHT22;18230;51.502;7.108;2023-08-06T12:54:31;16.40;99.90
31619;DHT22;18230;51.502;7.108;2023-08-06T12:59:37;16.40;99.90
31619;DHT22;18230;51.502;7.108;2023-08-06T13:04:37;16.20;99.90
31619;DHT22;18230;51.502;7.108;2023-08-06T13:09:38;16.10;99.90
31619;DHT22;18230;51.502;7.108;2023-08-06T13:14:39;16.00;99.90
31619;DHT22;18230;51.502;7.108;2023-08-06T13:19:39;16.00;99.90
31619;DHT22;18230;51.502;7.108;2023-08-06T13:24:40;16.00;99.90
31619;DHT22;18230;51.502;7.108;2023-08-06T13:29:40;15.90;99.90
31619;DHT22;18230;51.502;7.108;2023-08-06T13:34:41;15.90;99.90
31619;DHT22;18230;51.502;7.108;2023-08-06T13:39:45;16.00;99.90
31619;DHT22;18230;51.502;7.108;2023-08-06T13:44:49;16.00;99.90
31619;DHT22;18230;51.502;7.108;2023-08-06T13:49:50;16.00;99.90
31619;DHT22;18230;51.502;7.108;2023-08-06T13:54:53;16.00;99.90
31619;DHT22;18230;51.502;7.108;2023-08-06T13:59:54;16.00;99.90
31619;DHT22;18230;51.502;7.108;2023-08-06T14:04:55;16.00;99.90
31619;DHT22;18230;51.502;7.108;2023-08-06T14:09:56;16.10;99.90
31619;DHT22;18230;51.502;7.108;2023-08-06T14:14:58;16.10;99.90
31619;DHT22;18230;51.502;7.108;2023-08-06T14:19:59;16.00;99.90
31619;DHT22;18230;51.502;7.108;2023-08-06T14:25:01;16.10;99.90
31619;DHT22;18230;51.502;7.108;2023-08-06T14:30:02;16.10;99.90
31619;DHT22;18230;51.502;7.108;2023-08-06T14:35:03;16.20;99.90
31619;DHT22;18230;51.502;7.108;2023-08-06T14:40:05;16.20;99.90
31619;DHT22;18230;51.502;7.108;2023-08-06T14:45:06;16.20;99.90
31619;DHT22;18230;51.502;7.108;2023-08-06T14:50:07;16.20;99.90
31619;DHT22;18230;51.502;7.108;2023-08-06T14:55:08;16.30;99.90
31619;DHT22;18230;51.502;7.108;2023-08-06T15:00:08;16.30;99.90
31619;DHT22;18230;51.502;7.108;2023-08-06T15:05:10;16.40;99.90
31619;DHT22;18230;51.502;7.108;2023-08-06T15:10:11;16.30;99.90
31619;DHT22;18230;51.502;7.108;2023-08-06T15:15:12;16.30;99.90
31619;DHT22;18230;51.502;7.108;2023-08-06T15:20:12;16.50;99.90
31619;DHT22;18230;51.502;7.108;2023-08-06T15:25:13;16.40;99.90
31619;DHT22;18230;51.502;7.108;2023-08-06T15:30:14;16.50;99.90
31619;DHT22;18230;51.502;7.108;2023-08-06T15:35:15;16.80;99.90
31619;DHT22;18230;51.502;7.108;2023-08-06T15:40:15;17.00;99.90
31619;DHT22;18230;51.502;7.108;2023-08-06T15:45:16;17.10;99.90
31619;DHT22;18230;51.502;7.108;2023-08-06T15:50:16;17.00;99.90
31619;DHT22;18230;51.502;7.108;2023-08-06T15:55:17;17.10;99.90
31619;DHT22;18230;51.502;7.108;2023-08-06T16:00:18;17.00;99.90
31619;DHT22;18230;51.502;7.108;2023-08-06T16:05:19;16.90;99.90
31619;DHT22;18230;51.502;7.108;2023-08-06T16:10:19;16.80;99.90
31619;DHT22;18230;51.502;7.108;2023-08-06T16:15:20;16.80;99.90
31619;DHT22;18230;51.502;7.108;2023-08-06T16:20:21;16.80;99.90
31619;DHT22;18230;51.502;7.108;2023-08-06T16:25:21;16.70;99.90
31619;DHT22;18230;51.502;7.108;2023-08-06T16:30:22;16.60;99.90
31619;DHT22;18230;51.502;7.108;2023-08-06T16:35:23;16.60;99.90
31619;DHT22;18230;51.502;7.108;2023-08-06T16:40:23;16.60;99.90
31619;DHT22;18230;51.502;7.108;2023-08-06T16:45:24;16.50;99.90
31619;DHT22;18230;51.502;7.108;2023-08-06T16:50:25;16.50;99.90
31619;DHT22;18230;51.502;7.108;2023-08-06T16:55:25;16.50;99.90
31619;DHT22;18230;51.502;7.108;2023-08-06T17:00:26;16.40;99.90
31619;DHT22;18230;51.502;7.108;2023-08-06T17:05:28;16.40;99.90
31619;DHT22;18230;51.502;7.108;2023-08-06T17:10:32;16.30;99.90
31619;DHT22;18230;51.502;7.108;2023-08-06T17:15:33;16.30;99.90
31619;DHT22;18230;51.502;7.108;2023-08-06T17:20:34;16.20;99.90
31619;DHT22;18230;51.502;7.108;2023-08-06T17:25:35;16.10;99.90
31619;DHT22;18230;51.502;7.108;2023-08-06T17:30:36;16.10;99.90
31619;DHT22;18230;51.502;7.108;2023-08-06T17:35:41;16.00;99.90
31619;DHT22;18230;51.502;7.108;2023-08-06T17:40:42;16.00;99.90
31619;DHT22;18230;51.502;7.108;2023-08-06T17:45:45;16.00;99.90
31619;DHT22;18230;51.502;7.108;2023-08-06T17:50:46;15.90;99.90
31619;DHT22;18230;51.502;7.108;2023-08-06T17:55:46;15.90;99.90
31619;DHT22;18230;51.502;7.108;2023-08-06T18:00:48;15.90;99.90
31619;DHT22;18230;51.502;7.108;2023-08-06T18:05:57;15.90;99.90
31619;DHT22;18230;51.502;7.108;2023-08-06T18:10:58;15.90;99.90
31619;DHT22;18230;51.502;7.108;2023-08-06T18:15:58;15.90;99.90
31619;DHT22;18230;51.502;7.108;2023-08-06T18:20:59;15.80;99.90
31619;DHT22;18230;51.502;7.108;2023-08-06T18:25:59;15.80;99.90
31619;DHT22;18230;51.502;7.108;2023-08-06T18:31:00;15.80;99.90
31619;DHT22;18230;51.502;7.108;2023-08-06T18:36:01;15.70;99.90
31619;DHT22;18230;51.502;7.108;2023-08-06T18:41:01;15.60;99.90
31619;DHT22;18230;51.502;7.108;2023-08-06T18:46:02;15.50;99.90
31619;DHT22;18230;51.502;7.108;2023-08-06T18:51:03;15.50;99.90
31619;DHT22;18230;51.502;7.108;2023-08-06T18:56:03;15.40;99.90
31619;DHT22;18230;51.502;7.108;2023-08-06T19:01:04;15.40;99.90
31619;DHT22;18230;51.502;7.108;2023-08-06T19:06:05;15.20;99.90
31619;DHT22;18230;51.502;7.108;2023-08-06T19:11:06;15.10;99.90
31619;DHT22;18230;51.502;7.108;2023-08-06T19:16:07;15.10;99.90
31619;DHT22;18230;51.502;7.108;2023-08-06T19:21:08;15.10;99.90
31619;DHT22;18230;51.502;7.108;2023-08-06T19:26:09;15.00;99.90
31619;DHT22;18230;51.502;7.108;2023-08-06T19:31:10;14.90;99.90
31619;DHT22;18230;51.502;7.108;2023-08-06T19:36:10;14.90;99.90
31619;DHT22;18230;51.502;7.108;2023-08-06T19:41:11;14.90;99.90
31619;DHT22;18230;51.502;7.108;2023-08-06T19:46:11;14.90;99.90
31619;DHT22;18230;51.502;7.108;2023-08-06T19:51:12;14.90;99.90
31619;DHT22;18230;51.502;7.108;2023-08-06T21:15:11;14.70;99.90
31619;DHT22;18230;51.502;7.108;2023-08-06T21:20:12;14.70;99.90
31619;DHT22;18230;51.502;7.108;2023-08-06T21:25:13;14.60;99.90
31619;DHT22;18230;51.502;7.108;2023-08-06T21:30:13;14.50;99.90
31619;DHT22;18230;51.502;7.108;2023-08-06T21:35:14;14.50;99.90
31619;DHT22;18230;51.502;7.108;2023-08-06T21:40:15;14.50;99.90
31619;DHT22;18230;51.502;7.108;2023-08-06T21:45:16;14.50;99.90
31619;DHT22;18230;51.502;7.108;2023-08-06T21:50:17;14.50;99.90
31619;DHT22;18230;51.502;7.108;2023-08-06T21:55:17;14.30;99.90
31619;DHT22;18230;51.502;7.108;2023-08-06T22:00:18;14.20;99.90
31619;DHT22;18230;51.502;7.108;2023-08-06T22:05:19;14.20;99.90
31619;DHT22;18230;51.502;7.108;2023-08-06T22:10:19;14.10;99.90
31619;DHT22;18230;51.502;7.108;2023-08-06T22:15:20;14.10;99.90
31619;DHT22;18230;51.502;7.108;2023-08-06T22:20:21;14.20;99.90
31619;DHT22;18230;51.502;7.108;2023-08-06T22:25:21;14.10;99.90
31619;DHT22;18230;51.502;7.108;2023-08-06T22:30:22;14.00;99.90
31619;DHT22;18230;51.502;7.108;2023-08-06T22:35:23;14.00;99.90
31619;DHT22;18230;51.502;7.108;2023-08-06T22:40:24;14.00;99.90
31619;DHT22;18230;51.502;7.108;2023-08-06T22:45:25;14.00;99.90
31619;DHT22;18230;51.502;7.108;2023-08-06T22:50:26;13.90;99.90
31619;DHT22;18230;51.502;7.108;2023-08-06T22:55:26;13.90;99.90
31619;DHT22;18230;51.502;7.108;2023-08-06T23:00:27;14.10;99.90
31619;DHT22;18230;51.502;7.108;2023-08-06T23:05:28;14.10;99.90
31619;DHT22;18230;51.502;7.108;2023-08-06T23:10:29;14.00;99.90
31619;DHT22;18230;51.502;7.108;2023-08-06T23:15:29;14.00;99.90
31619;DHT22;18230;51.502;7.108;2023-08-06T23:20:30;13.80;99.90
31619;DHT22;18230;51.502;7.108;2023-08-06T23:25:34;13.80;99.90
31619;DHT22;18230;51.502;7.108;2023-08-06T23:30:35;14.00;99.90
31619;DHT22;18230;51.502;7.108;2023-08-06T23:35:36;13.80;99.90
31619;DHT22;18230;51.502;7.108;2023-08-06T23:40:37;13.70;99.90
31619;DHT22;18230;51.502;7.108;2023-08-06T23:45:38;13.70;99.90
31619;DHT22;18230;51.502;7.108;2023-08-06T23:50:38;13.70;99.90
31619;DHT22;18230;51.502;7.108;2023-08-06T23:55:39;13.70;99.90
